createdAt,value
2023-03-10T00:00:23.109Z,29.65
2023-03-10T00:02:50.275Z,26.63
2023-03-10T00:05:19.210Z,21.88
2023-03-10T00:07:47.069Z,22.45
2023-03-10T00:10:15.111Z,26.23
2023-03-10T00:12:41.931Z,24.83
2023-03-10T00:15:09.765Z,25.92
2023-03-10T00:17:36.932Z,25.25
2023-03-10T00:20:09.215Z,26.80
2023-03-10T00:22:35.887Z,23.48
2023-03-10T00:25:02.573Z,21.50
2023-03-10T00:27:29.225Z,23.45
2023-03-10T00:29:55.926Z,29.63
2023-03-10T00:32:22.659Z,29.17
2023-03-10T00:34:49.283Z,26.63
2023-03-10T00:37:16.205Z,29.75
2023-03-10T00:39:42.767Z,31.55
2023-03-10T00:42:10.816Z,29.65
2023-03-10T00:44:37.554Z,25.40
2023-03-10T00:47:04.243Z,27.75
2023-03-10T00:49:30.944Z,26.92
2023-03-10T00:51:57.466Z,31.05
2023-03-10T00:54:24.025Z,26.58
2023-03-10T00:56:50.682Z,22.33
2023-03-10T00:59:17.338Z,25.13
2023-03-10T01:01:44.016Z,25.60
2023-03-10T01:04:15.897Z,26.73
2023-03-10T01:06:44.574Z,26.65
2023-03-10T01:09:11.667Z,28.98
2023-03-10T01:11:38.445Z,24.25
2023-03-10T01:14:08.228Z,35.10
2023-03-10T01:16:35.294Z,25.55
2023-03-10T01:19:02.108Z,22.20
2023-03-10T01:21:31.867Z,24.95
2023-03-10T01:23:59.719Z,25.40
2023-03-10T01:26:26.300Z,28.63
2023-03-10T01:28:53.273Z,28.15
2023-03-10T01:31:19.907Z,24.73
2023-03-10T01:33:47.173Z,28.13
2023-03-10T01:36:16.700Z,24.67
2023-03-10T01:38:43.778Z,25.75
2023-03-10T01:41:11.426Z,22.77
2023-03-10T01:43:43.596Z,30.45
2023-03-10T01:46:43.237Z,23.85
2023-03-10T01:49:27.903Z,27.58
2023-03-10T01:52:00.145Z,28.63
2023-03-10T01:54:33.791Z,26.40
2023-03-10T01:57:00.969Z,22.10
2023-03-10T01:59:28.307Z,25.88
2023-03-10T02:01:56.551Z,23.27
2023-03-10T02:04:32.469Z,23.80
2023-03-10T02:06:59.940Z,24.15
2023-03-10T02:09:27.352Z,25.08
2023-03-10T02:11:54.353Z,30.88
2023-03-10T02:14:21.127Z,28.58
2023-03-10T02:16:47.874Z,25.05
2023-03-10T02:19:45.102Z,20.05
2023-03-10T02:22:12.485Z,28.90
2023-03-10T02:24:55.018Z,24.98
2023-03-10T02:27:27.379Z,22.00
2023-03-10T02:30:14.788Z,25.10
2023-03-10T02:32:45.755Z,23.52
2023-03-10T02:35:12.651Z,20.67
2023-03-10T02:37:39.813Z,28.63
2023-03-10T02:40:40.604Z,22.42
2023-03-10T02:43:13.236Z,27.23
2023-03-10T02:45:42.852Z,20.08
2023-03-10T02:48:12.056Z,29.20
2023-03-10T02:50:40.997Z,25.38
2023-03-10T02:53:19.289Z,22.52
2023-03-10T02:55:46.491Z,25.30
2023-03-10T02:58:13.773Z,25.25
2023-03-10T03:00:42.854Z,25.10
2023-03-10T03:03:10.710Z,18.58
2023-03-10T03:05:37.744Z,26.85
2023-03-10T03:08:05.551Z,25.42
2023-03-10T03:10:32.945Z,25.77
2023-03-10T03:12:59.733Z,25.00
2023-03-10T03:15:26.458Z,35.40
2023-03-10T03:17:54.314Z,20.80
2023-03-10T03:20:21.901Z,23.70
2023-03-10T03:22:48.514Z,23.67
2023-03-10T03:25:18.226Z,27.20
2023-03-10T03:27:45.784Z,20.38
2023-03-10T03:30:21.701Z,20.08
2023-03-10T03:32:48.952Z,27.00
2023-03-10T03:35:19.138Z,30.23
2023-03-10T03:37:45.873Z,23.35
2023-03-10T03:40:14.043Z,28.45
2023-03-10T03:42:43.598Z,24.15
2023-03-10T03:45:12.089Z,32.55
2023-03-10T03:47:38.644Z,26.58
2023-03-10T03:50:07.159Z,28.63
2023-03-10T03:52:34.496Z,25.50
2023-03-10T03:55:01.129Z,29.50
2023-03-10T03:57:28.248Z,27.70
2023-03-10T03:59:55.110Z,25.27
2023-03-10T04:02:21.757Z,28.50
2023-03-10T04:04:48.351Z,24.85
2023-03-10T04:07:15.136Z,29.88
2023-03-10T04:09:42.633Z,22.48
2023-03-10T04:12:10.627Z,26.85
2023-03-10T04:14:37.686Z,27.73
2023-03-10T04:17:05.467Z,31.70
2023-03-10T04:19:32.292Z,27.70
2023-03-10T04:21:58.998Z,23.05
2023-03-10T04:24:25.771Z,18.33
2023-03-10T04:26:53.881Z,25.00
2023-03-10T04:29:24.395Z,26.85
2023-03-10T04:32:04.768Z,28.48
2023-03-10T04:34:32.749Z,20.88
2023-03-10T04:36:59.535Z,26.48
2023-03-10T04:39:26.332Z,21.63
2023-03-10T04:41:52.867Z,22.33
2023-03-10T04:44:30.600Z,25.95
2023-03-10T04:46:58.355Z,20.33
2023-03-10T04:49:25.197Z,28.67
2023-03-10T04:51:51.945Z,31.05
2023-03-10T04:54:18.600Z,30.90
2023-03-10T04:56:45.284Z,26.25
2023-03-10T04:59:12.000Z,28.17
2023-03-10T05:01:38.602Z,25.92
2023-03-10T05:04:06.017Z,30.02
2023-03-10T05:06:32.735Z,36.22
2023-03-10T05:09:01.181Z,26.90
2023-03-10T05:11:27.868Z,30.67
2023-03-10T05:13:54.446Z,34.92
2023-03-10T05:16:22.900Z,31.05
2023-03-10T05:18:49.762Z,35.30
2023-03-10T05:21:17.407Z,31.88
2023-03-10T05:23:44.242Z,29.10
2023-03-10T05:26:11.920Z,25.40
2023-03-10T05:28:39.162Z,31.73
2023-03-10T05:31:13.215Z,32.85
2023-03-10T05:33:41.013Z,35.03
2023-03-10T05:36:09.754Z,32.25
2023-03-10T05:38:37.077Z,37.00
2023-03-10T05:41:10.043Z,36.83
2023-03-10T05:43:37.781Z,38.30
2023-03-10T05:46:05.120Z,38.67
2023-03-10T05:48:32.506Z,26.95
2023-03-10T05:50:59.201Z,31.95
2023-03-10T05:53:26.371Z,31.92
2023-03-10T05:55:54.603Z,34.05
2023-03-10T05:58:22.105Z,34.55
2023-03-10T06:00:48.729Z,37.83
2023-03-10T06:03:16.258Z,31.92
2023-03-10T06:05:42.883Z,35.80
2023-03-10T06:08:09.465Z,29.42
2023-03-10T06:10:36.200Z,33.08
2023-03-10T06:13:02.911Z,38.72
2023-03-10T06:15:30.274Z,30.52
2023-03-10T06:17:56.829Z,32.40
2023-03-10T06:20:23.468Z,36.25
2023-03-10T06:22:52.375Z,43.00
2023-03-10T06:27:46.323Z,34.83
2023-03-10T06:30:13.236Z,38.20
2023-03-10T06:32:39.865Z,33.28
2023-03-10T06:35:06.692Z,33.85
2023-03-10T06:37:33.313Z,31.17
2023-03-10T06:39:59.883Z,31.67
2023-03-10T06:42:26.466Z,32.92
2023-03-10T06:44:55.845Z,32.83
2023-03-10T06:47:22.460Z,30.35
2023-03-10T06:49:49.057Z,32.95
2023-03-10T06:52:15.790Z,32.83
2023-03-10T06:54:42.339Z,35.85
2023-03-10T06:57:08.927Z,28.77
2023-03-10T06:59:35.579Z,27.92
2023-03-10T07:02:02.208Z,29.20
2023-03-10T07:04:28.801Z,35.67
2023-03-10T07:06:55.394Z,31.77
2023-03-10T07:09:21.967Z,37.05
2023-03-10T07:11:48.533Z,33.85
2023-03-10T07:14:15.174Z,37.13
2023-03-10T07:16:41.929Z,36.35
2023-03-10T07:19:08.486Z,27.52
2023-03-10T07:21:35.075Z,36.45
2023-03-10T07:24:01.587Z,29.08
2023-03-10T07:26:28.422Z,27.02
2023-03-10T07:28:55.024Z,30.40
2023-03-10T07:31:22.076Z,28.27
2023-03-10T07:33:49.629Z,30.63
2023-03-10T07:36:19.376Z,23.80
2023-03-10T07:38:46.217Z,32.33
2023-03-10T07:41:18.910Z,28.73
2023-03-10T07:43:45.950Z,32.65
2023-03-10T07:46:15.152Z,26.08
2023-03-10T07:48:41.982Z,33.30
2023-03-10T07:51:09.036Z,30.60
2023-03-10T07:53:35.929Z,29.10
2023-03-10T07:56:07.086Z,29.83
2023-03-10T07:58:34.319Z,28.45
2023-03-10T08:01:01.002Z,35.05
2023-03-10T08:03:29.002Z,33.92
2023-03-10T08:05:55.945Z,31.23
2023-03-10T08:08:23.208Z,23.52
2023-03-10T08:10:49.909Z,19.67
2023-03-10T08:13:16.562Z,19.05
2023-03-10T08:15:43.253Z,18.65
2023-03-10T08:18:10.036Z,20.58
2023-03-10T08:20:36.916Z,22.83
2023-03-10T08:23:04.208Z,25.33
2023-03-10T08:25:31.088Z,22.90
2023-03-10T08:27:57.730Z,18.63
2023-03-10T08:30:24.597Z,20.13
2023-03-10T08:32:51.283Z,20.20
2023-03-10T08:35:19.172Z,20.52
2023-03-10T08:37:46.336Z,20.40
2023-03-10T08:40:16.307Z,15.48
2023-03-10T08:42:43.050Z,16.83
2023-03-10T08:45:09.732Z,17.75
2023-03-10T08:47:36.477Z,22.83
2023-03-10T08:50:04.596Z,18.75
2023-03-10T08:52:31.477Z,16.75
2023-03-10T08:55:00.297Z,21.08
2023-03-10T08:57:26.847Z,16.33
2023-03-10T08:59:53.813Z,19.33
2023-03-10T09:02:21.930Z,16.88
2023-03-10T09:04:49.428Z,18.13
2023-03-10T09:07:15.997Z,16.25
2023-03-10T09:09:42.772Z,15.70
2023-03-10T09:12:09.542Z,19.17
2023-03-10T09:14:36.961Z,23.58
2023-03-10T09:17:04.411Z,24.42
2023-03-10T09:19:30.970Z,14.93
2023-03-10T09:21:59.317Z,18.73
2023-03-10T09:24:26.004Z,19.88
2023-03-10T09:26:52.508Z,25.80
2023-03-10T09:29:20.277Z,20.48
2023-03-10T09:31:48.310Z,22.60
2023-03-10T09:34:15.115Z,20.45
2023-03-10T09:36:41.933Z,19.55
2023-03-10T09:39:08.519Z,17.50
2023-03-10T09:41:46.891Z,17.48
2023-03-10T09:44:42.638Z,21.75
2023-03-10T09:47:57.457Z,15.80
2023-03-10T09:50:29.607Z,16.58
2023-03-10T09:53:07.215Z,18.10
2023-03-10T09:55:42.395Z,21.83
2023-03-10T09:58:35.317Z,19.17
2023-03-10T10:03:53.041Z,19.63
2023-03-10T10:06:28.499Z,19.20
2023-03-10T10:09:07.448Z,20.52
2023-03-10T10:11:37.189Z,15.00
2023-03-10T10:14:30.986Z,19.75
2023-03-10T10:17:25.531Z,19.42
2023-03-10T10:19:53.526Z,16.70
2023-03-10T10:22:28.186Z,24.63
2023-03-10T10:25:09.603Z,16.83
2023-03-10T10:27:41.338Z,14.82
2023-03-10T10:30:32.254Z,12.93
2023-03-10T10:33:00.111Z,17.95
2023-03-10T10:35:30.410Z,19.77
2023-03-10T10:38:28.511Z,16.17
2023-03-10T10:41:08.050Z,13.77
2023-03-10T10:43:43.747Z,16.27
2023-03-10T10:46:12.460Z,14.77
2023-03-10T10:48:48.050Z,18.00
2023-03-10T10:51:27.181Z,17.98
2023-03-10T10:53:54.846Z,21.15
2023-03-10T10:56:24.048Z,16.25
2023-03-10T10:59:19.128Z,17.30
2023-03-10T11:01:54.361Z,21.92
2023-03-10T11:04:23.259Z,20.73
2023-03-10T11:06:51.473Z,17.92
2023-03-10T11:09:20.838Z,23.73
2023-03-10T11:12:21.995Z,22.05
2023-03-10T11:14:58.863Z,19.00
2023-03-10T11:17:33.284Z,18.88
2023-03-10T11:20:09.158Z,15.23
2023-03-10T11:22:42.116Z,20.83
2023-03-10T11:25:25.587Z,15.63
2023-03-10T11:27:52.089Z,17.50
2023-03-10T11:30:23.439Z,16.50
2023-03-10T11:33:16.108Z,18.45
2023-03-10T11:35:50.101Z,16.10
2023-03-10T11:38:28.804Z,14.52
2023-03-10T11:40:59.034Z,13.65
2023-03-10T11:43:57.512Z,23.67
2023-03-10T11:46:37.322Z,20.17
2023-03-10T11:49:08.791Z,18.17
2023-03-10T11:51:43.911Z,19.67
2023-03-10T11:54:26.701Z,14.18
2023-03-10T11:56:54.107Z,23.33
2023-03-10T11:59:26.890Z,16.33
2023-03-10T12:02:12.494Z,22.92
2023-03-10T12:04:47.547Z,16.85
2023-03-10T12:07:26.760Z,21.48
2023-03-10T12:09:54.785Z,17.77
2023-03-10T12:12:31.999Z,21.35
2023-03-10T12:15:01.917Z,21.45
2023-03-10T12:17:29.125Z,19.55
2023-03-10T12:20:12.872Z,14.82
2023-03-10T12:22:52.420Z,21.60
2023-03-10T12:25:28.111Z,16.83
2023-03-10T12:28:16.664Z,17.95
2023-03-10T12:30:45.682Z,13.15
2023-03-10T12:33:30.424Z,17.92
2023-03-10T12:36:36.044Z,18.33
2023-03-10T12:39:27.494Z,24.80
2023-03-10T12:41:56.480Z,21.80
2023-03-10T12:44:29.055Z,18.88
2023-03-10T12:47:09.168Z,19.42
2023-03-10T12:49:41.782Z,17.10
2023-03-10T12:52:20.632Z,16.42
2023-03-10T12:55:16.963Z,21.15
2023-03-10T12:57:52.401Z,19.52
2023-03-10T13:00:50.130Z,21.48
2023-03-10T13:03:25.011Z,20.33
2023-03-10T13:06:33.171Z,23.33
2023-03-10T13:11:42.056Z,23.80
2023-03-10T13:14:22.918Z,22.23
2023-03-10T13:17:00.137Z,18.88
2023-03-10T13:19:32.750Z,20.40
2023-03-10T13:21:59.779Z,30.25
2023-03-10T13:24:28.114Z,20.63
2023-03-10T13:27:13.430Z,19.25
2023-03-10T13:29:41.247Z,20.55
2023-03-10T13:32:19.066Z,21.75
2023-03-10T13:34:45.754Z,19.02
2023-03-10T13:37:12.271Z,16.38
2023-03-10T13:39:38.934Z,15.75
2023-03-10T13:42:37.192Z,20.92
2023-03-10T13:45:22.241Z,14.88
2023-03-10T13:47:50.553Z,19.35
2023-03-10T13:52:57.322Z,16.60
2023-03-10T13:55:24.630Z,20.52
2023-03-10T13:57:51.962Z,21.75
2023-03-10T14:00:21.589Z,16.50
2023-03-10T14:02:49.943Z,16.60
2023-03-10T14:05:45.479Z,15.05
2023-03-10T14:08:32.554Z,18.35
2023-03-10T14:11:32.076Z,18.17
2023-03-10T14:14:00.209Z,23.63
2023-03-10T14:16:50.564Z,18.08
2023-03-10T14:19:42.225Z,12.60
2023-03-10T14:22:27.948Z,20.30
2023-03-10T14:24:55.253Z,16.63
2023-03-10T14:27:22.245Z,17.25
2023-03-10T14:29:51.890Z,14.60
2023-03-10T14:32:19.281Z,13.68
2023-03-10T14:34:46.795Z,23.60
2023-03-10T14:37:13.679Z,18.27
2023-03-10T14:39:40.526Z,15.00
2023-03-10T14:42:09.511Z,16.50
2023-03-10T14:44:37.270Z,16.88
2023-03-10T14:47:04.013Z,11.17
2023-03-10T14:49:30.793Z,13.98
2023-03-10T14:51:57.355Z,12.43
2023-03-10T14:54:26.000Z,18.15
2023-03-10T14:57:01.029Z,17.52
2023-03-10T14:59:28.367Z,12.57
2023-03-10T15:01:56.720Z,16.25
2023-03-10T15:04:23.385Z,16.55
2023-03-10T15:06:50.026Z,14.57
2023-03-10T15:09:17.116Z,16.30
2023-03-10T15:11:43.822Z,18.85
2023-03-10T15:14:16.250Z,23.92
2023-03-10T15:16:42.902Z,18.63
2023-03-10T15:19:20.838Z,15.18
2023-03-10T15:21:47.430Z,15.90
2023-03-10T15:24:14.357Z,19.52
2023-03-10T15:26:40.927Z,20.48
2023-03-10T15:29:07.512Z,17.10
2023-03-10T15:31:34.201Z,13.68
2023-03-10T15:34:00.703Z,20.00
2023-03-10T15:36:27.290Z,19.98
2023-03-10T15:38:53.901Z,24.52
2023-03-10T15:41:20.505Z,18.25
2023-03-10T15:43:47.055Z,22.17
2023-03-10T15:46:13.661Z,20.80
2023-03-10T15:48:40.258Z,20.02
2023-03-10T15:51:17.755Z,19.35
2023-03-10T15:53:45.225Z,24.45
2023-03-10T15:56:12.066Z,25.45
2023-03-10T15:58:38.717Z,21.85
2023-03-10T16:01:09.271Z,20.95
2023-03-10T16:03:37.304Z,15.77
2023-03-10T16:06:09.519Z,18.67
2023-03-10T16:08:39.919Z,28.30
2023-03-10T16:11:10.264Z,17.27
2023-03-10T16:13:36.847Z,22.15
2023-03-10T16:16:09.584Z,19.65
2023-03-10T16:18:36.406Z,22.15
2023-03-10T16:21:03.846Z,20.17
2023-03-10T16:23:33.358Z,24.45
2023-03-10T16:26:10.161Z,22.30
2023-03-10T16:28:38.986Z,22.95
2023-03-10T16:31:07.827Z,23.42
2023-03-10T16:33:34.587Z,21.65
2023-03-10T16:36:03.118Z,24.05
2023-03-10T16:38:29.966Z,30.80
2023-03-10T16:40:57.971Z,27.38
2023-03-10T16:43:28.380Z,30.10
2023-03-10T16:46:17.380Z,26.70
2023-03-10T16:48:46.500Z,24.55
2023-03-10T16:51:19.019Z,24.88
2023-03-10T16:53:46.517Z,28.98
2023-03-10T16:56:13.374Z,29.30
2023-03-10T16:58:40.002Z,31.60
2023-03-10T17:01:06.856Z,35.75
2023-03-10T17:03:39.402Z,27.20
2023-03-10T17:06:09.132Z,30.13
2023-03-10T17:08:35.700Z,28.05
2023-03-10T17:11:02.426Z,32.70
2023-03-10T17:13:30.914Z,28.90
2023-03-10T17:15:57.552Z,34.60
2023-03-10T17:18:24.127Z,23.90
2023-03-10T17:20:50.719Z,26.98
2023-03-10T17:23:17.379Z,27.98
2023-03-10T17:25:45.186Z,24.20
2023-03-10T17:28:11.828Z,31.50
2023-03-10T17:30:40.335Z,34.78
2023-03-10T17:33:06.976Z,28.00
2023-03-10T17:35:38.364Z,34.33
2023-03-10T17:38:04.952Z,30.38
2023-03-10T17:40:31.739Z,40.55
2023-03-10T17:43:08.383Z,24.75
2023-03-10T17:45:39.744Z,34.92
2023-03-10T17:48:06.605Z,39.20
2023-03-10T17:50:33.715Z,33.85
2023-03-10T17:53:00.474Z,38.63
2023-03-10T17:55:27.337Z,33.83
2023-03-10T17:57:53.956Z,35.72
2023-03-10T18:00:21.304Z,36.85
2023-03-10T18:02:48.115Z,35.70
2023-03-10T18:05:14.706Z,38.85
2023-03-10T18:07:41.279Z,45.10
2023-03-10T18:10:08.768Z,43.13
2023-03-10T18:12:35.422Z,42.67
2023-03-10T18:15:02.045Z,39.10
2023-03-10T18:17:29.081Z,37.20
2023-03-10T18:19:56.031Z,35.33
2023-03-10T18:22:22.812Z,38.03
2023-03-10T18:24:49.349Z,35.40
2023-03-10T18:27:16.029Z,34.47
2023-03-10T18:29:42.623Z,42.13
2023-03-10T18:32:09.207Z,40.75
2023-03-10T18:34:35.792Z,41.40
2023-03-10T18:37:02.415Z,41.50
2023-03-10T18:39:29.112Z,38.75
2023-03-10T18:41:55.694Z,41.40
2023-03-10T18:44:22.241Z,42.80
2023-03-10T18:46:49.022Z,52.38
2023-03-10T18:49:15.627Z,39.08
2023-03-10T18:51:42.342Z,48.63
2023-03-10T18:54:08.874Z,55.30
2023-03-10T18:56:35.485Z,47.03
2023-03-10T18:59:02.089Z,41.97
2023-03-10T19:01:29.258Z,43.92
2023-03-10T19:03:55.982Z,45.60
2023-03-10T19:06:22.607Z,41.78
2023-03-10T19:08:49.749Z,36.00
2023-03-10T19:11:17.404Z,45.30
2023-03-10T19:13:45.068Z,38.80
2023-03-10T19:16:12.066Z,42.30
2023-03-10T19:18:38.692Z,36.35
2023-03-10T19:21:06.044Z,37.92
2023-03-10T19:23:34.906Z,32.55
2023-03-10T19:26:02.367Z,31.58
2023-03-10T19:28:29.002Z,34.47
2023-03-10T19:30:55.722Z,35.75
2023-03-10T19:33:23.357Z,46.00
2023-03-10T19:35:50.545Z,33.33
2023-03-10T19:38:17.755Z,34.63
2023-03-10T19:40:46.559Z,32.53
2023-03-10T19:45:39.475Z,36.95
2023-03-10T19:48:06.327Z,36.45
2023-03-10T19:50:32.903Z,34.47
2023-03-10T19:52:59.516Z,28.92
2023-03-10T19:55:27.377Z,31.17
2023-03-10T19:57:58.238Z,38.75
2023-03-10T20:00:30.978Z,35.50
2023-03-10T20:02:58.251Z,33.78
2023-03-10T20:05:26.828Z,31.80
2023-03-10T20:07:54.155Z,37.28
2023-03-10T20:10:20.930Z,39.20
2023-03-10T20:12:47.520Z,48.38
2023-03-10T20:15:14.515Z,31.42
2023-03-10T20:17:41.217Z,37.55
2023-03-10T20:20:10.713Z,29.38
2023-03-10T20:22:39.169Z,34.88
2023-03-10T20:25:07.421Z,26.05
2023-03-10T20:27:34.232Z,31.98
2023-03-10T20:30:00.883Z,34.50
2023-03-10T20:32:27.529Z,40.28
2023-03-10T20:34:54.069Z,37.03
2023-03-10T20:37:20.597Z,32.28
2023-03-10T20:39:47.125Z,30.05
2023-03-10T20:42:13.631Z,33.72
2023-03-10T20:44:40.215Z,25.00
2023-03-10T20:47:07.506Z,25.58
2023-03-10T20:49:34.022Z,27.83
2023-03-10T20:52:00.592Z,30.45
2023-03-10T20:54:27.164Z,30.58
2023-03-10T20:56:53.865Z,21.38
2023-03-10T20:59:20.478Z,23.42
2023-03-10T21:01:47.102Z,18.83
2023-03-10T21:04:13.749Z,18.98
2023-03-10T21:06:40.440Z,17.98
2023-03-10T21:09:07.072Z,19.77
2023-03-10T21:11:34.583Z,17.33
2023-03-10T21:14:01.447Z,21.23
2023-03-10T21:16:28.272Z,22.83
2023-03-10T21:18:54.888Z,18.17
2023-03-10T21:21:21.881Z,16.42
2023-03-10T21:23:48.677Z,18.58
2023-03-10T21:26:20.889Z,18.05
2023-03-10T21:28:47.767Z,17.65
2023-03-10T21:31:15.083Z,21.98
2023-03-10T21:33:41.850Z,17.48
2023-03-10T21:36:14.618Z,20.02
2023-03-10T21:38:41.615Z,20.70
2023-03-10T21:41:08.953Z,21.90
2023-03-10T21:43:35.538Z,20.13
2023-03-10T21:46:02.136Z,19.58
2023-03-10T21:48:28.729Z,15.70
2023-03-10T21:50:55.226Z,18.60
2023-03-10T21:53:21.844Z,13.38
2023-03-10T21:55:48.573Z,20.70
2023-03-10T21:58:15.158Z,19.95
2023-03-10T22:00:41.696Z,20.75
2023-03-10T22:03:08.303Z,14.98
2023-03-10T22:05:34.894Z,16.65
2023-03-10T22:08:01.507Z,14.98
2023-03-10T22:10:28.111Z,14.60
2023-03-10T22:12:54.843Z,20.75
2023-03-10T22:15:25.981Z,16.85
2023-03-10T22:17:53.589Z,16.00
2023-03-10T22:20:23.408Z,16.75
2023-03-10T22:22:50.564Z,14.85
2023-03-10T22:25:17.838Z,16.13
2023-03-10T22:27:48.085Z,16.77
2023-03-10T22:30:14.735Z,15.88
2023-03-10T22:32:41.909Z,14.57
2023-03-10T22:35:09.966Z,18.83
2023-03-10T22:37:40.904Z,18.90
2023-03-10T22:40:16.931Z,14.73
2023-03-10T22:42:44.877Z,17.30
2023-03-10T22:45:25.462Z,16.10
2023-03-10T22:47:55.010Z,14.25
2023-03-10T22:50:32.699Z,13.52
2023-03-10T22:53:00.782Z,10.93
2023-03-10T22:55:28.948Z,14.75
2023-03-10T22:57:56.591Z,10.13
2023-03-10T23:00:23.130Z,11.82
2023-03-10T23:02:52.142Z,13.07
2023-03-10T23:05:18.879Z,17.55
2023-03-10T23:07:46.603Z,13.20
2023-03-10T23:10:24.819Z,14.35
2023-03-10T23:12:52.098Z,12.63
2023-03-10T23:15:27.816Z,17.10
2023-03-10T23:17:56.882Z,26.15
2023-03-10T23:20:27.407Z,22.52
2023-03-10T23:22:55.900Z,18.20
2023-03-10T23:25:34.445Z,16.08
2023-03-10T23:28:01.911Z,11.93
2023-03-10T23:30:28.886Z,15.30
2023-03-10T23:32:56.161Z,13.02
2023-03-10T23:35:40.949Z,14.13
2023-03-10T23:38:07.556Z,11.70
2023-03-10T23:40:36.370Z,10.98
2023-03-10T23:45:31.544Z,10.18
2023-03-10T23:48:01.342Z,11.55
2023-03-10T23:50:34.531Z,12.45
2023-03-10T23:53:01.578Z,11.40
2023-03-10T23:55:31.977Z,14.98
2023-03-10T23:57:59.292Z,12.13
